createdAt,value
2018-02-09T00:01:37.658Z,6.10
2018-02-09T00:04:05.626Z,13.53
2018-02-09T00:06:33.591Z,47.27
2018-02-09T00:09:01.655Z,14.40
2018-02-09T00:11:29.630Z,28.80
2018-02-09T00:13:57.603Z,16.47
2018-02-09T00:16:25.648Z,13.40
2018-02-09T00:18:53.670Z,13.13
2018-02-09T00:21:21.698Z,7.60
2018-02-09T00:23:49.638Z,14.37
2018-02-09T00:26:17.655Z,13.27
2018-02-09T00:28:45.646Z,15.07
2018-02-09T00:31:13.650Z,13.40
2018-02-09T00:33:41.631Z,11.40
2018-02-09T00:36:09.620Z,16.73
2018-02-09T00:38:37.648Z,13.13
2018-02-09T00:41:05.666Z,10.30
2018-02-09T00:43:33.694Z,25.43
2018-02-09T00:46:02.506Z,13.90
2018-02-09T00:48:30.522Z,20.23
2018-02-09T00:50:58.567Z,17.33
2018-02-09T00:53:26.614Z,9.80
2018-02-09T00:55:54.604Z,12.80
2018-02-09T00:58:22.610Z,16.33
2018-02-09T01:00:50.602Z,26.23
2018-02-09T01:03:18.504Z,45.37
2018-02-09T01:05:46.463Z,18.83
2018-02-09T01:08:14.437Z,38.97
2018-02-09T01:10:42.479Z,44.80
2018-02-09T01:13:10.432Z,57.10
2018-02-09T01:15:38.464Z,26.53
2018-02-09T01:18:06.475Z,59.50
2018-02-09T01:20:34.379Z,17.80
2018-02-09T01:23:02.423Z,16.90
2018-02-09T01:25:30.462Z,21.67
2018-02-09T01:27:58.465Z,23.40
2018-02-09T01:30:26.430Z,29.53
2018-02-09T01:32:54.449Z,33.13
2018-02-09T01:35:22.422Z,20.70
2018-02-09T01:37:50.476Z,20.10
2018-02-09T01:40:18.373Z,9.00
2018-02-09T01:42:46.376Z,9.20
2018-02-09T01:45:14.339Z,6.90
2018-02-09T01:47:43.084Z,7.73
2018-02-09T01:50:17.095Z,15.60
2018-02-09T01:52:45.086Z,13.47
2018-02-09T01:55:13.205Z,10.10
2018-02-09T01:57:41.202Z,11.40
2018-02-09T02:00:09.219Z,68.30
2018-02-09T02:02:37.218Z,38.10
2018-02-09T02:05:05.197Z,19.70
2018-02-09T02:07:33.202Z,12.93
2018-02-09T02:10:01.209Z,14.23
2018-02-09T02:12:29.206Z,13.33
2018-02-09T02:14:57.242Z,20.70
2018-02-09T02:17:25.223Z,17.80
2018-02-09T02:19:53.257Z,26.80
2018-02-09T02:22:21.201Z,24.43
2018-02-09T02:24:49.279Z,13.27
2018-02-09T02:27:17.223Z,17.90
2018-02-09T02:29:45.175Z,25.87
2018-02-09T02:32:13.233Z,10.80
2018-02-09T02:34:41.191Z,18.03
2018-02-09T02:37:09.203Z,32.07
2018-02-09T02:39:37.264Z,9.53
2018-02-09T02:42:05.326Z,24.50
2018-02-09T02:44:33.379Z,13.23
2018-02-09T02:47:01.393Z,15.80
2018-02-09T02:49:29.757Z,15.80
2018-02-09T02:51:58.270Z,12.27
2018-02-09T02:54:26.308Z,20.90
2018-02-09T02:56:54.267Z,12.13
2018-02-09T02:59:22.254Z,18.17
2018-02-09T03:01:50.238Z,18.70
2018-02-09T03:04:18.161Z,19.83
2018-02-09T03:06:46.165Z,26.73
2018-02-09T03:09:14.178Z,14.67
2018-02-09T03:11:42.239Z,15.10
2018-02-09T03:14:10.286Z,9.43
2018-02-09T03:16:38.266Z,13.70
2018-02-09T03:19:06.314Z,8.20
2018-02-09T03:21:34.317Z,11.40
2018-02-09T03:24:02.346Z,6.80
2018-02-09T03:26:30.271Z,8.13
2018-02-09T03:28:58.184Z,8.57
2018-02-09T03:31:26.052Z,12.13
2018-02-09T03:33:53.987Z,5.60
2018-02-09T03:36:21.946Z,11.87
2018-02-09T03:38:49.913Z,9.17
2018-02-09T03:41:17.834Z,7.73
2018-02-09T03:43:45.802Z,7.00
2018-02-09T03:46:13.790Z,6.13
2018-02-09T03:48:41.782Z,6.37
2018-02-09T03:51:09.993Z,4.60
2018-02-09T03:53:37.946Z,6.37
2018-02-09T03:56:05.950Z,19.20
2018-02-09T03:58:33.933Z,26.20
2018-02-09T04:01:01.921Z,13.43
2018-02-09T04:03:29.943Z,17.23
2018-02-09T04:05:57.936Z,6.50
2018-02-09T04:08:25.900Z,9.03
2018-02-09T04:10:53.936Z,7.17
2018-02-09T04:13:21.931Z,28.63
2018-02-09T04:15:49.902Z,12.30
2018-02-09T04:18:17.894Z,8.50
2018-02-09T04:20:45.982Z,13.33
2018-02-09T04:23:13.966Z,18.33
2018-02-09T04:25:41.955Z,13.10
2018-02-09T04:28:09.969Z,19.47
2018-02-09T04:30:38.040Z,31.27
2018-02-09T04:33:06.063Z,10.27
2018-02-09T04:35:34.039Z,18.13
2018-02-09T04:38:01.946Z,19.80
2018-02-09T04:40:29.938Z,13.40
2018-02-09T04:42:57.921Z,22.93
2018-02-09T04:45:27.211Z,28.20
2018-02-09T04:47:55.154Z,18.43
2018-02-09T04:50:23.127Z,36.77
2018-02-09T04:52:51.374Z,22.33
2018-02-09T04:55:19.393Z,38.70
2018-02-09T04:57:47.372Z,87.53
2018-02-09T05:00:15.387Z,49.03
2018-02-09T05:02:43.382Z,42.70
2018-02-09T05:05:11.402Z,43.90
2018-02-09T05:07:39.454Z,49.67
2018-02-09T05:10:07.419Z,41.17
2018-02-09T05:12:35.406Z,39.17
2018-02-09T05:15:03.360Z,265.50
2018-02-09T05:17:31.315Z,38.50
2018-02-09T05:19:59.313Z,43.10
2018-02-09T05:22:27.402Z,51.07
2018-02-09T05:24:55.414Z,21.93
2018-02-09T05:27:23.400Z,23.90
2018-02-09T05:29:51.368Z,25.03
2018-02-09T05:32:19.288Z,20.40
2018-02-09T05:34:47.267Z,19.43
2018-02-09T05:37:15.282Z,26.87
2018-02-09T05:39:43.303Z,31.60
2018-02-09T05:42:11.306Z,64.67
2018-02-09T05:44:39.321Z,95.20
2018-02-09T05:47:07.332Z,57.30
2018-02-09T05:49:35.335Z,425.67
2018-02-09T05:52:03.340Z,54.63
2018-02-09T05:54:31.847Z,35.97
2018-02-09T05:56:59.859Z,32.93
2018-02-09T05:59:27.827Z,76.13
2018-02-09T06:01:55.730Z,73.67
2018-02-09T06:04:23.711Z,65.33
2018-02-09T06:06:51.706Z,65.40
2018-02-09T06:09:19.587Z,48.70
2018-02-09T06:11:47.567Z,57.70
2018-02-09T06:14:15.903Z,50.87
2018-02-09T06:16:43.967Z,66.50
2018-02-09T06:19:11.991Z,95.70
2018-02-09T06:21:40.017Z,93.77
2018-02-09T06:24:08.063Z,82.07
2018-02-09T06:26:36.084Z,90.33
2018-02-09T06:29:04.660Z,104.20
2018-02-09T06:31:33.620Z,58.27
2018-02-09T06:34:01.737Z,37.07
2018-02-09T06:36:29.857Z,31.03
2018-02-09T06:38:57.945Z,45.70
2018-02-09T06:41:25.980Z,67.00
2018-02-09T06:43:54.032Z,45.50
2018-02-09T06:46:22.051Z,94.60
2018-02-09T06:48:50.107Z,91.90
2018-02-09T06:51:18.162Z,79.53
2018-02-09T06:53:46.208Z,73.37
2018-02-09T06:56:14.683Z,81.63
2018-02-09T06:58:42.538Z,99.40
2018-02-09T07:01:10.555Z,80.40
2018-02-09T07:03:38.547Z,85.50
2018-02-09T07:06:06.546Z,73.93
2018-02-09T07:08:34.631Z,61.80
2018-02-09T07:11:02.590Z,54.23
2018-02-09T07:13:30.793Z,48.40
2018-02-09T07:15:59.277Z,48.63
2018-02-09T07:18:27.845Z,49.83
2018-02-09T07:20:56.557Z,47.33
2018-02-09T07:23:24.651Z,29.97
2018-02-09T07:25:52.650Z,43.60
2018-02-09T07:28:21.862Z,115.33
2018-02-09T07:30:50.961Z,132.00
2018-02-09T07:33:19.545Z,75.17
2018-02-09T07:35:47.508Z,79.10
2018-02-09T07:38:15.552Z,62.53
2018-02-09T07:40:44.182Z,62.30
2018-02-09T07:43:12.232Z,83.37
2018-02-09T07:45:40.249Z,84.00
2018-02-09T07:48:08.234Z,55.97
2018-02-09T07:50:36.248Z,50.73
2018-02-09T07:53:04.161Z,73.40
2018-02-09T07:55:32.149Z,64.80
2018-02-09T07:58:00.694Z,60.77
2018-02-09T08:00:28.654Z,65.27
2018-02-09T08:02:56.701Z,64.93
2018-02-09T08:05:24.685Z,72.57
2018-02-09T08:07:52.635Z,75.17
2018-02-09T08:10:20.596Z,86.97
2018-02-09T08:12:48.599Z,128.90
2018-02-09T08:15:16.552Z,56.03
2018-02-09T08:17:44.579Z,36.27
2018-02-09T08:20:12.517Z,54.43
2018-02-09T08:22:40.538Z,55.10
2018-02-09T08:25:08.522Z,49.00
2018-02-09T08:27:36.525Z,185.40
2018-02-09T08:30:04.592Z,35.60
2018-02-09T08:32:32.542Z,39.43
2018-02-09T08:35:00.607Z,70.27
2018-02-09T08:37:28.581Z,24.60
2018-02-09T08:39:56.591Z,20.03
2018-02-09T08:42:24.492Z,18.43
2018-02-09T08:44:52.386Z,8.60
2018-02-09T08:47:20.403Z,40.93
2018-02-09T08:49:48.393Z,17.57
2018-02-09T08:52:16.409Z,13.73
2018-02-09T08:54:44.414Z,25.77
2018-02-09T08:57:12.409Z,26.73
2018-02-09T08:59:41.223Z,25.47
2018-02-09T09:02:09.196Z,55.93
2018-02-09T09:04:37.167Z,11.70
2018-02-09T09:07:05.168Z,39.57
2018-02-09T09:09:33.143Z,22.27
2018-02-09T09:12:01.232Z,7.83
2018-02-09T09:14:29.239Z,27.27
2018-02-09T09:16:57.228Z,22.97
2018-02-09T09:19:25.192Z,35.60
2018-02-09T09:21:53.183Z,17.97
2018-02-09T09:24:21.262Z,13.77
2018-02-09T09:26:49.292Z,9.20
2018-02-09T09:29:17.276Z,9.50
2018-02-09T09:31:45.287Z,18.10
2018-02-09T09:34:13.114Z,14.23
2018-02-09T09:36:41.078Z,25.60
2018-02-09T09:39:09.075Z,30.53
2018-02-09T09:41:37.091Z,23.87
2018-02-09T09:44:05.128Z,61.43
2018-02-09T09:46:33.181Z,17.20
2018-02-09T09:49:01.195Z,15.17
2018-02-09T09:51:29.171Z,5.60
2018-02-09T09:53:57.298Z,15.60
2018-02-09T09:56:25.351Z,11.77
2018-02-09T09:58:53.383Z,7.70
2018-02-09T10:01:28.120Z,5.93
2018-02-09T10:03:56.116Z,25.50
2018-02-09T10:06:24.248Z,28.13
2018-02-09T10:08:52.285Z,6.73
2018-02-09T10:11:20.332Z,8.53
2018-02-09T10:13:48.392Z,7.00
2018-02-09T10:16:16.338Z,2.47
2018-02-09T10:18:44.290Z,5.23
2018-02-09T10:21:12.292Z,7.73
2018-02-09T10:23:40.422Z,5.17
2018-02-09T10:26:08.428Z,11.57
2018-02-09T10:28:36.513Z,5.13
2018-02-09T10:31:04.458Z,4.10
2018-02-09T10:33:32.391Z,3.70
2018-02-09T10:36:00.392Z,3.80
2018-02-09T10:38:28.368Z,20.63
2018-02-09T10:40:56.359Z,5.07
2018-02-09T10:43:24.278Z,6.63
2018-02-09T10:45:52.270Z,55.67
2018-02-09T10:48:20.320Z,42.10
2018-02-09T10:50:48.345Z,51.77
2018-02-09T10:53:16.352Z,20.10
2018-02-09T10:55:44.415Z,12.40
2018-02-09T10:58:12.428Z,6.13
2018-02-09T11:00:45.984Z,6.50
2018-02-09T11:03:14.816Z,15.00
2018-02-09T11:05:42.855Z,65.73
2018-02-09T11:08:10.871Z,32.50
2018-02-09T11:10:44.529Z,29.47
2018-02-09T11:13:16.381Z,9.77
2018-02-09T11:15:44.355Z,14.33
2018-02-09T11:18:12.655Z,6.73
2018-02-09T11:20:40.698Z,9.67
2018-02-09T11:23:11.118Z,10.87
2018-02-09T11:25:39.802Z,22.27
2018-02-09T11:28:10.743Z,31.03
2018-02-09T11:30:40.627Z,6.57
2018-02-09T11:33:08.687Z,10.50
2018-02-09T11:35:36.706Z,11.13
2018-02-09T11:38:04.746Z,11.07
2018-02-09T11:40:32.733Z,12.33
2018-02-09T11:43:00.730Z,13.33
2018-02-09T11:45:28.682Z,12.43
2018-02-09T11:47:56.705Z,11.70
2018-02-09T11:50:24.663Z,8.70
2018-02-09T11:52:52.668Z,3.30
2018-02-09T11:55:20.679Z,2.50
2018-02-09T11:57:48.687Z,3.47
2018-02-09T12:00:16.710Z,8.43
2018-02-09T12:02:44.715Z,7.10
2018-02-09T12:05:13.367Z,5.30
2018-02-09T12:07:41.350Z,28.67
2018-02-09T12:10:09.326Z,10.93
2018-02-09T12:12:37.874Z,12.37
2018-02-09T12:15:06.254Z,8.63
2018-02-09T12:17:34.611Z,4.73
2018-02-09T12:20:03.010Z,20.37
2018-02-09T12:22:31.369Z,3.53
2018-02-09T12:24:59.766Z,6.97
2018-02-09T12:27:28.125Z,21.17
2018-02-09T12:29:56.535Z,7.87
2018-02-09T12:32:24.897Z,4.93
2018-02-09T12:34:53.278Z,6.10
2018-02-09T12:37:21.657Z,20.73
2018-02-09T12:39:50.195Z,6.70
2018-02-09T12:42:18.700Z,9.60
2018-02-09T12:44:46.994Z,5.33
2018-02-09T12:47:15.777Z,14.20
2018-02-09T12:49:43.958Z,23.93
2018-02-09T12:52:12.640Z,10.50
2018-02-09T12:54:41.530Z,6.50
2018-02-09T12:57:10.010Z,4.67
2018-02-09T12:59:38.385Z,4.73
2018-02-09T13:02:06.850Z,3.27
2018-02-09T13:04:35.245Z,2.53
2018-02-09T13:07:04.246Z,6.33
2018-02-09T13:09:32.496Z,3.63
2018-02-09T13:12:00.934Z,3.10
2018-02-09T13:14:41.334Z,3.27
2018-02-09T13:17:15.777Z,2.87
2018-02-09T13:19:44.149Z,5.20
2018-02-09T13:22:24.323Z,1.90
2018-02-09T13:24:52.685Z,9.13
2018-02-09T13:27:21.686Z,14.50
2018-02-09T13:29:50.054Z,1.80
2018-02-09T13:32:30.518Z,10.80
2018-02-09T13:34:59.002Z,31.33
2018-02-09T13:37:35.361Z,2.63
2018-02-09T13:40:03.857Z,8.27
2018-02-09T13:42:32.119Z,5.83
2018-02-09T13:45:00.707Z,15.87
2018-02-09T13:47:29.692Z,4.57
2018-02-09T13:49:58.017Z,6.43
2018-02-09T13:52:26.653Z,3.40
2018-02-09T13:54:55.134Z,2.07
2018-02-09T13:57:23.524Z,3.23
2018-02-09T13:59:51.973Z,3.90
2018-02-09T14:02:20.683Z,6.77
2018-02-09T14:04:48.668Z,5.70
2018-02-09T14:07:17.312Z,13.20
2018-02-09T14:09:45.462Z,3.80
2018-02-09T14:12:13.423Z,11.03
2018-02-09T14:14:41.440Z,20.07
2018-02-09T14:17:09.462Z,10.73
2018-02-09T14:19:37.404Z,5.93
2018-02-09T14:22:05.331Z,7.40
2018-02-09T14:24:33.291Z,7.00
2018-02-09T14:27:01.226Z,3.50
2018-02-09T14:29:29.234Z,4.30
2018-02-09T14:31:57.207Z,11.83
2018-02-09T14:34:25.195Z,17.63
2018-02-09T14:36:53.275Z,6.27
2018-02-09T14:39:21.234Z,18.23
2018-02-09T14:41:49.238Z,35.03
2018-02-09T14:44:17.190Z,20.47
2018-02-09T14:46:45.216Z,12.27
2018-02-09T14:49:13.271Z,18.97
2018-02-09T14:51:41.318Z,32.77
2018-02-09T14:54:09.392Z,13.93
2018-02-09T14:56:37.433Z,13.80
2018-02-09T14:59:07.755Z,22.77
2018-02-09T15:01:35.711Z,19.07
2018-02-09T15:04:03.669Z,27.47
2018-02-09T15:06:31.714Z,26.30
2018-02-09T15:08:59.754Z,23.97
2018-02-09T15:11:27.849Z,46.83
2018-02-09T15:13:55.854Z,50.70
2018-02-09T15:16:23.837Z,66.17
2018-02-09T15:18:51.754Z,39.37
2018-02-09T15:21:19.719Z,33.33
2018-02-09T15:23:47.792Z,46.60
2018-02-09T15:26:15.760Z,33.03
2018-02-09T15:28:43.747Z,54.60
2018-02-09T15:31:11.673Z,48.80
2018-02-09T15:33:39.734Z,56.33
2018-02-09T15:36:07.731Z,33.97
2018-02-09T15:38:35.785Z,62.30
2018-02-09T15:41:03.730Z,36.53
2018-02-09T15:43:31.677Z,58.23
2018-02-09T15:45:59.674Z,39.10
2018-02-09T15:48:27.699Z,48.43
2018-02-09T15:50:55.773Z,49.80
2018-02-09T15:53:23.693Z,31.00
2018-02-09T15:55:51.678Z,30.53
2018-02-09T15:58:19.697Z,15.53
2018-02-09T16:00:47.623Z,7.27
2018-02-09T16:03:15.614Z,22.53
2018-02-09T16:05:43.700Z,39.93
2018-02-09T16:08:11.690Z,27.47
2018-02-09T16:10:43.007Z,58.13
2018-02-09T16:13:11.457Z,34.80
2018-02-09T16:15:40.021Z,316.27
2018-02-09T16:18:09.841Z,88.80
2018-02-09T16:20:37.857Z,101.57
2018-02-09T16:23:05.853Z,83.73
2018-02-09T16:25:33.836Z,148.67
2018-02-09T16:28:01.955Z,136.17
2018-02-09T16:30:30.053Z,110.80
2018-02-09T16:32:58.146Z,95.40
2018-02-09T16:35:26.109Z,128.17
2018-02-09T16:37:54.086Z,100.03
2018-02-09T16:40:22.054Z,108.83
2018-02-09T16:42:50.010Z,106.10
2018-02-09T16:45:18.011Z,99.03
2018-02-09T16:47:45.998Z,89.57
2018-02-09T16:50:13.999Z,56.00
2018-02-09T16:52:42.029Z,67.87
2018-02-09T16:55:10.016Z,84.87
2018-02-09T16:57:38.074Z,89.83
2018-02-09T17:00:06.046Z,98.87
2018-02-09T17:02:33.966Z,139.03
2018-02-09T17:05:01.913Z,98.47
2018-02-09T17:07:29.853Z,118.10
2018-02-09T17:09:57.862Z,118.77
2018-02-09T17:12:26.533Z,75.97
2018-02-09T17:14:55.570Z,78.17
2018-02-09T17:17:23.566Z,69.40
2018-02-09T17:19:51.711Z,53.33
2018-02-09T17:22:19.829Z,54.63
2018-02-09T17:24:47.808Z,43.97
2018-02-09T17:27:15.801Z,51.97
2018-02-09T17:29:43.772Z,81.33
2018-02-09T17:32:11.730Z,81.67
2018-02-09T17:34:39.709Z,58.17
2018-02-09T17:37:07.798Z,90.47
2018-02-09T17:39:35.882Z,76.70
2018-02-09T17:42:03.819Z,90.13
2018-02-09T17:44:31.855Z,123.20
2018-02-09T17:46:59.837Z,93.27
2018-02-09T17:49:27.842Z,68.67
2018-02-09T17:51:55.783Z,80.53
2018-02-09T17:54:23.792Z,49.57
2018-02-09T17:56:51.811Z,56.67
2018-02-09T17:59:19.726Z,53.60
2018-02-09T18:01:47.729Z,54.50
2018-02-09T18:04:15.758Z,58.53
2018-02-09T18:06:43.742Z,49.23
2018-02-09T18:09:11.779Z,41.03
2018-02-09T18:11:39.746Z,45.77
2018-02-09T18:14:08.204Z,47.77
2018-02-09T18:16:36.173Z,52.60
2018-02-09T18:19:04.119Z,58.20
2018-02-09T18:21:32.106Z,71.53
2018-02-09T18:24:00.066Z,80.43
2018-02-09T18:26:27.930Z,106.67
2018-02-09T18:28:55.915Z,132.37
2018-02-09T18:31:23.859Z,164.60
2018-02-09T18:33:51.878Z,134.03
2018-02-09T18:36:19.883Z,92.83
2018-02-09T18:38:47.943Z,116.23
2018-02-09T18:41:16.842Z,83.90
2018-02-09T18:43:45.101Z,84.43
2018-02-09T18:46:13.212Z,114.47
2018-02-09T18:48:41.221Z,87.17
2018-02-09T18:51:09.570Z,101.40
2018-02-09T18:53:39.635Z,153.83
2018-02-09T18:56:07.657Z,210.90
2018-02-09T18:58:35.606Z,185.67
2018-02-09T19:01:05.149Z,183.70
2018-02-09T19:03:38.917Z,164.30
2018-02-09T19:06:06.924Z,165.23
2018-02-09T19:08:34.913Z,219.60
2018-02-09T19:11:02.886Z,209.50
2018-02-09T19:13:30.894Z,211.37
2018-02-09T19:15:59.407Z,173.13
2018-02-09T19:18:28.749Z,164.87
2018-02-09T19:20:56.771Z,172.43
2018-02-09T19:23:24.769Z,152.20
2018-02-09T19:25:53.841Z,167.80
2018-02-09T19:28:21.881Z,147.13
2018-02-09T19:30:53.431Z,150.80
2018-02-09T19:33:21.578Z,162.50
2018-02-09T19:35:51.141Z,177.70
2018-02-09T19:38:19.788Z,182.03
2018-02-09T19:40:47.802Z,167.17
2018-02-09T19:43:15.798Z,185.77
2018-02-09T19:45:43.807Z,169.90
2018-02-09T19:48:11.781Z,173.93
2018-02-09T19:50:39.795Z,159.93
2018-02-09T19:53:07.782Z,147.13
2018-02-09T19:55:35.793Z,119.00
2018-02-09T19:58:03.799Z,90.93
2018-02-09T20:00:31.767Z,97.50
2018-02-09T20:02:59.826Z,168.47
2018-02-09T20:05:27.797Z,150.97
2018-02-09T20:07:55.778Z,125.93
2018-02-09T20:10:23.839Z,113.13
2018-02-09T20:12:51.766Z,113.37
2018-02-09T20:15:19.799Z,117.67
2018-02-09T20:17:48.543Z,119.33
2018-02-09T20:20:16.485Z,151.47
2018-02-09T20:22:44.490Z,156.17
2018-02-09T20:25:12.491Z,80.27
2018-02-09T20:27:40.551Z,64.60
2018-02-09T20:30:08.535Z,49.50
2018-02-09T20:32:36.619Z,59.07
2018-02-09T20:35:04.642Z,41.37
2018-02-09T20:37:32.643Z,88.87
2018-02-09T20:40:00.616Z,87.47
2018-02-09T20:42:28.640Z,80.40
2018-02-09T20:44:56.636Z,70.13
2018-02-09T20:47:26.015Z,39.20
2018-02-09T20:49:53.981Z,45.47
2018-02-09T20:52:21.997Z,89.87
2018-02-09T20:54:49.992Z,111.33
2018-02-09T20:57:17.904Z,90.70
2018-02-09T20:59:45.993Z,113.73
2018-02-09T21:02:14.026Z,60.10
2018-02-09T21:04:42.354Z,70.20
2018-02-09T21:07:10.333Z,48.83
2018-02-09T21:09:38.287Z,54.67
2018-02-09T21:12:07.969Z,51.57
2018-02-09T21:14:38.906Z,39.97
2018-02-09T21:17:07.275Z,43.30
2018-02-09T21:19:35.334Z,82.57
2018-02-09T21:22:03.271Z,65.33
2018-02-09T21:24:31.213Z,51.30
2018-02-09T21:26:59.208Z,31.27
2018-02-09T21:29:27.251Z,32.40
2018-02-09T21:31:55.286Z,68.70
2018-02-09T21:34:23.282Z,63.13
2018-02-09T21:36:51.314Z,53.83
2018-02-09T21:39:19.298Z,58.67
2018-02-09T21:41:47.305Z,66.20
2018-02-09T21:44:15.319Z,72.90
2018-02-09T21:46:43.265Z,73.53
2018-02-09T21:49:11.262Z,58.17
2018-02-09T21:51:39.334Z,58.10
2018-02-09T21:54:07.275Z,50.70
2018-02-09T21:56:35.282Z,58.90
2018-02-09T21:59:03.277Z,71.77
2018-02-09T22:01:31.258Z,54.03
2018-02-09T22:03:59.214Z,48.50
2018-02-09T22:06:27.206Z,37.33
2018-02-09T22:08:55.225Z,29.13
2018-02-09T22:11:23.191Z,37.37
2018-02-09T22:13:51.199Z,75.13
2018-02-09T22:16:19.241Z,48.10
2018-02-09T22:18:47.230Z,71.40
2018-02-09T22:21:15.974Z,49.43
2018-02-09T22:23:43.940Z,40.93
2018-02-09T22:26:11.928Z,50.63
2018-02-09T22:28:39.913Z,57.30
2018-02-09T22:31:07.913Z,37.03
2018-02-09T22:33:35.941Z,38.77
2018-02-09T22:36:03.870Z,33.30
2018-02-09T22:38:31.806Z,32.00
2018-02-09T22:40:59.795Z,44.70
2018-02-09T22:43:27.762Z,69.27
2018-02-09T22:45:55.743Z,51.73
2018-02-09T22:48:23.762Z,85.33
2018-02-09T22:50:51.731Z,49.80
2018-02-09T22:53:19.694Z,48.53
2018-02-09T22:55:47.715Z,50.17
2018-02-09T22:58:15.671Z,44.07
2018-02-09T23:00:43.758Z,45.47
2018-02-09T23:03:11.765Z,38.50
2018-02-09T23:05:39.784Z,35.90
2018-02-09T23:08:07.866Z,33.43
2018-02-09T23:10:35.823Z,38.23
2018-02-09T23:13:03.780Z,31.20
2018-02-09T23:15:31.725Z,23.97
2018-02-09T23:17:59.730Z,24.50
2018-02-09T23:20:27.677Z,36.87
2018-02-09T23:22:56.097Z,46.57
2018-02-09T23:25:24.013Z,59.37
2018-02-09T23:27:52.130Z,43.13
2018-02-09T23:30:20.110Z,35.20
2018-02-09T23:32:48.066Z,51.50
2018-02-09T23:35:16.034Z,41.13
2018-02-09T23:37:44.105Z,61.93
2018-02-09T23:40:12.038Z,33.33
2018-02-09T23:42:40.028Z,39.90
2018-02-09T23:45:08.002Z,53.77
2018-02-09T23:47:36.014Z,47.50
2018-02-09T23:50:04.042Z,26.00
2018-02-09T23:52:32.004Z,22.80
2018-02-09T23:55:00.053Z,21.83
2018-02-09T23:57:28.015Z,29.70
2018-02-09T23:59:56.019Z,39.80
